Time;durP1;ratioP1;P1;durP2;ratioP2;P2;SDS_P1;SDS_P2;PMS_P1;PMS_P2;Temp;Humidity;BMP_temperature;BMP_pressure;BME280_temperature;BME280_humidity;BME280_pressure;Samples;Min_cycle;Max_cycle;Signal;HPM_P1;HPM_P2
2021/04/22 00:02:02;;;;;;;18.02;3.53;;;7.00;94.10;;;;;;5034321;28;20026;-61
2021/04/22 00:04:28;;;;;;;16.00;2.63;;;7.00;94.20;;;;;;5034173;28;20029;-61
2021/04/22 00:06:54;;;;;;;18.77;4.00;;;7.00;94.10;;;;;;5033590;28;20025;-61
2021/04/22 00:09:20;;;;;;;15.07;3.72;;;7.00;94.00;;;;;;5031536;28;20243;-61
2021/04/22 00:11:47;;;;;;;15.75;3.40;;;7.00;93.90;;;;;;5035166;28;20036;-61
2021/04/22 00:14:13;;;;;;;18.20;3.63;;;7.00;93.90;;;;;;5033369;28;20024;-61
2021/04/22 00:16:39;;;;;;;17.42;3.33;;;7.00;93.80;;;;;;5034832;28;20483;-61
2021/04/22 00:19:05;;;;;;;19.85;3.60;;;6.90;93.80;;;;;;5034547;28;20021;-61
2021/04/22 00:21:31;;;;;;;18.90;3.72;;;6.90;93.70;;;;;;5035085;28;20025;-61
2021/04/22 00:23:57;;;;;;;17.73;3.50;;;6.90;93.80;;;;;;5033798;28;20171;-61
2021/04/22 00:26:22;;;;;;;33.88;3.40;;;6.90;93.80;;;;;;5034885;28;20033;-61
2021/04/22 00:28:48;;;;;;;22.25;3.63;;;6.90;93.60;;;;;;5033492;28;20030;-61
2021/04/22 00:31:14;;;;;;;17.30;3.58;;;6.80;93.60;;;;;;5033626;28;20021;-61
2021/04/22 00:33:40;;;;;;;20.67;3.20;;;6.80;93.90;;;;;;5031730;28;20065;-61
2021/04/22 00:36:06;;;;;;;18.48;3.42;;;6.80;93.60;;;;;;5033578;28;20053;-61
2021/04/22 00:38:32;;;;;;;21.63;4.20;;;6.70;93.60;;;;;;5032575;28;20310;-60
2021/04/22 00:40:58;;;;;;;19.33;3.25;;;6.60;93.50;;;;;;5032244;28;20091;-61
2021/04/22 00:43:23;;;;;;;17.55;2.95;;;6.60;93.50;;;;;;5031832;28;20026;-61
2021/04/22 00:45:50;;;;;;;16.48;3.25;;;6.50;93.50;;;;;;5034463;28;20037;-61
2021/04/22 00:48:22;;;;;;;19.98;3.08;;;6.50;93.50;;;;;;5034434;28;20390;-61
2021/04/22 00:50:48;;;;;;;22.30;3.67;;;6.50;93.40;;;;;;5034289;28;20029;-61
2021/04/22 00:53:14;;;;;;;21.40;3.30;;;6.50;93.60;;;;;;5033928;28;20028;-61
2021/04/22 00:55:40;;;;;;;19.00;3.40;;;6.50;93.30;;;;;;5034101;28;20029;-61
2021/04/22 00:58:07;;;;;;;16.02;3.03;;;6.50;93.60;;;;;;5033973;28;20056;-61
2021/04/22 01:00:57;;;;;;;18.58;3.45;;;6.50;93.30;;;;;;5032491;28;20030;-61
2021/04/22 01:03:23;;;;;;;19.55;3.92;;;6.40;93.20;;;;;;5036608;28;20033;-61
2021/04/22 01:05:54;;;;;;;15.18;3.15;;;6.40;93.20;;;;;;5014010;28;20044;-61
2021/04/22 01:08:20;;;;;;;18.73;3.38;;;6.30;93.40;;;;;;5012470;28;20629;-61
2021/04/22 01:10:46;;;;;;;16.77;3.30;;;6.30;93.30;;;;;;5014196;28;20053;-61
2021/04/22 01:13:11;;;;;;;25.10;3.90;;;6.30;93.30;;;;;;5010877;28;20030;-61
2021/04/22 01:15:37;;;;;;;23.70;4.50;;;6.30;93.30;;;;;;5014446;28;20080;-61
2021/04/22 01:18:05;;;;;;;14.85;3.00;;;6.20;93.40;;;;;;5011655;28;20482;-61
2021/04/22 01:20:39;;;;;;;17.50;3.30;;;6.20;93.50;;;;;;5014041;28;20030;-61
2021/04/22 01:23:05;;;;;;;37.90;5.03;;;6.20;93.50;;;;;;5014196;28;20037;-61
2021/04/22 01:25:35;;;;;;;20.85;3.50;;;6.20;93.40;;;;;;5014354;28;20026;-61
2021/04/22 01:28:02;;;;;;;18.65;3.67;;;6.20;93.40;;;;;;5013991;28;20105;-61
2021/04/22 01:30:32;;;;;;;18.80;3.40;;;6.20;93.50;;;;;;5029559;28;20025;-61
2021/04/22 01:32:58;;;;;;;20.95;3.30;;;6.10;93.50;;;;;;5012826;28;20072;-61
2021/04/22 01:35:32;;;;;;;17.65;3.28;;;6.10;93.60;;;;;;5013497;28;20046;-61
2021/04/22 01:37:59;;;;;;;20.45;3.78;;;6.10;93.70;;;;;;5011985;28;20129;-61
2021/04/22 01:40:25;;;;;;;21.98;3.50;;;6.10;93.70;;;;;;5012539;28;20036;-60
2021/04/22 01:42:51;;;;;;;17.42;3.42;;;6.00;93.70;;;;;;5011431;28;20125;-61
2021/04/22 01:45:17;;;;;;;26.90;3.60;;;6.00;94.00;;;;;;5011242;28;20501;-61
2021/04/22 01:47:44;;;;;;;22.75;3.85;;;6.00;94.10;;;;;;5013941;28;20026;-61
2021/04/22 01:50:18;;;;;;;30.52;4.28;;;6.00;94.00;;;;;;5011604;28;20029;-61
2021/04/22 01:52:44;;;;;;;26.02;3.72;;;6.00;94.10;;;;;;5013456;28;20444;-61
2021/04/22 01:55:13;;;;;;;27.13;3.88;;;5.90;94.20;;;;;;5013419;28;20026;-61
2021/04/22 01:57:39;;;;;;;18.70;3.30;;;5.90;94.30;;;;;;5013685;28;20069;-61
2021/04/22 02:00:26;;;;;;;28.77;3.47;;;5.80;94.40;;;;;;5011673;28;20033;-60
2021/04/22 02:02:52;;;;;;;20.00;3.33;;;5.80;94.40;;;;;;5013511;28;20022;-61
2021/04/22 02:05:18;;;;;;;17.65;3.45;;;5.80;94.50;;;;;;5013157;28;20037;-60
2021/04/22 02:07:43;;;;;;;22.45;4.07;;;5.80;94.50;;;;;;5011898;28;20064;-61
2021/04/22 02:10:10;;;;;;;25.00;3.95;;;5.80;94.50;;;;;;5013638;28;20391;-60
2021/04/22 02:12:36;;;;;;;18.65;3.13;;;5.80;94.50;;;;;;5030208;28;20025;-61
2021/04/22 02:15:04;;;;;;;23.83;3.80;;;5.70;94.70;;;;;;5028903;28;20065;-61
2021/04/22 02:17:30;;;;;;;24.52;3.50;;;5.60;94.80;;;;;;5033046;28;20181;-61
2021/04/22 02:19:56;;;;;;;16.95;3.70;;;5.70;94.90;;;;;;5030390;28;20080;-61
2021/04/22 02:22:21;;;;;;;22.05;3.38;;;5.70;94.90;;;;;;5031034;28;20083;-61
2021/04/22 02:24:47;;;;;;;16.02;3.15;;;5.70;94.90;;;;;;5030342;28;20073;-61
2021/04/22 02:27:12;;;;;;;30.58;4.82;;;5.60;94.90;;;;;;5032939;28;20413;-61
2021/04/22 02:29:38;;;;;;;27.35;3.80;;;5.60;94.90;;;;;;5032890;28;20420;-61
2021/04/22 02:32:04;;;;;;;24.23;4.00;;;5.60;94.90;;;;;;5032774;28;20022;-61
2021/04/22 02:34:29;;;;;;;22.77;4.10;;;5.50;95.00;;;;;;5032837;28;20025;-61
2021/04/22 02:36:55;;;;;;;18.30;3.80;;;5.50;95.00;;;;;;5032537;28;20383;-60
2021/04/22 02:39:21;;;;;;;18.88;3.42;;;5.50;95.00;;;;;;5032210;28;20108;-61
2021/04/22 02:41:46;;;;;;;25.30;4.32;;;5.50;95.00;;;;;;5031980;28;20037;-61
2021/04/22 02:44:12;;;;;;;16.70;4.00;;;5.60;94.90;;;;;;5032025;28;20121;-61
2021/04/22 02:46:38;;;;;;;25.33;4.63;;;5.60;94.90;;;;;;5031049;28;20086;-61
2021/04/22 02:49:04;;;;;;;19.33;3.60;;;5.60;94.80;;;;;;5028921;28;20111;-61
2021/04/22 02:51:29;;;;;;;30.10;5.05;;;5.50;94.70;;;;;;5032883;28;20163;-61
2021/04/22 02:53:55;;;;;;;25.10;4.55;;;5.40;94.60;;;;;;5028664;28;20037;-61
2021/04/22 02:56:20;;;;;;;22.45;4.22;;;5.40;94.70;;;;;;5033121;28;20039;-60
2021/04/22 02:58:46;;;;;;;24.02;3.90;;;5.40;95.00;;;;;;5029885;28;20124;-60
2021/04/22 03:01:11;;;;;;;22.45;4.15;;;5.40;94.50;;;;;;5030934;28;20021;-60
2021/04/22 03:03:37;;;;;;;23.25;4.63;;;5.40;94.70;;;;;;5031022;28;20021;-60
2021/04/22 03:06:03;;;;;;;22.27;4.07;;;5.40;94.60;;;;;;5032646;28;20338;-60
2021/04/22 03:08:28;;;;;;;31.10;4.82;;;5.40;94.50;;;;;;5032618;28;20233;-60
2021/04/22 03:10:54;;;;;;;25.08;3.67;;;5.40;94.40;;;;;;5031533;28;20140;-61
2021/04/22 03:13:20;;;;;;;23.10;4.68;;;5.40;94.40;;;;;;5032150;28;20075;-60
2021/04/22 03:15:45;;;;;;;24.77;4.18;;;5.40;94.50;;;;;;5032182;28;20049;-60
2021/04/22 03:18:11;;;;;;;23.00;3.80;;;5.40;94.50;;;;;;5031822;28;20022;-61
2021/04/22 03:20:38;;;;;;;17.40;3.60;;;5.40;94.40;;;;;;5027584;28;20064;-60
2021/04/22 03:23:04;;;;;;;30.58;4.00;;;5.40;94.30;;;;;;5009415;28;20030;-60
2021/04/22 03:25:30;;;;;;;25.77;4.85;;;5.30;94.40;;;;;;5012496;28;20109;-60
2021/04/22 03:27:56;;;;;;;24.42;4.45;;;5.30;94.40;;;;;;5010134;28;20109;-60
2021/04/22 03:30:28;;;;;;;29.75;3.90;;;5.30;94.30;;;;;;5012695;28;20459;-60
2021/04/22 03:32:54;;;;;;;23.05;4.28;;;5.30;94.30;;;;;;5010988;28;20026;-61
2021/04/22 03:35:20;;;;;;;23.08;4.40;;;5.30;94.40;;;;;;5015856;28;20082;-61
2021/04/22 03:37:46;;;;;;;20.67;3.83;;;5.20;94.50;;;;;;5014597;28;20374;-61
2021/04/22 03:40:14;;;;;;;19.95;3.70;;;5.30;94.50;;;;;;5016059;28;20026;-61
2021/04/22 03:42:40;;;;;;;17.27;3.50;;;5.20;94.60;;;;;;5015815;28;20044;-61
2021/04/22 03:45:08;;;;;;;21.73;4.60;;;5.30;94.50;;;;;;5015550;28;20475;-61
2021/04/22 03:47:34;;;;;;;17.05;3.72;;;5.20;94.60;;;;;;5014656;28;20049;-60
2021/04/22 03:50:00;;;;;;;19.00;4.30;;;5.20;94.50;;;;;;5016078;28;20061;-60
2021/04/22 03:52:25;;;;;;;22.33;4.63;;;5.30;94.50;;;;;;5016866;28;20388;-61
2021/04/22 03:54:52;;;;;;;25.80;4.70;;;5.30;94.50;;;;;;5035142;28;20446;-61
2021/04/22 03:57:17;;;;;;;22.13;3.90;;;5.20;94.60;;;;;;5031570;28;20049;-61
2021/04/22 03:59:43;;;;;;;27.33;5.05;;;5.20;94.60;;;;;;5035935;28;20068;-61
2021/04/22 04:02:09;;;;;;;28.70;4.07;;;5.20;94.60;;;;;;5033659;28;20025;-61
2021/04/22 04:04:34;;;;;;;20.70;4.30;;;5.20;94.60;;;;;;5035842;28;20029;-61
2021/04/22 04:07:00;;;;;;;22.20;4.32;;;5.10;94.70;;;;;;5033679;28;20086;-61
2021/04/22 04:09:25;;;;;;;28.08;4.35;;;5.10;94.80;;;;;;5035156;28;20403;-61
2021/04/22 04:11:51;;;;;;;25.98;4.50;;;5.20;94.80;;;;;;5033760;28;20101;-60
2021/04/22 04:14:17;;;;;;;18.25;4.18;;;5.10;94.70;;;;;;5035761;28;20061;-61
2021/04/22 04:16:42;;;;;;;25.35;4.32;;;5.10;94.70;;;;;;5034911;28;20067;-60
2021/04/22 04:19:08;;;;;;;24.35;4.75;;;5.10;94.80;;;;;;5035046;28;20033;-60
2021/04/22 04:21:33;;;;;;;17.65;4.20;;;5.10;94.90;;;;;;5035110;28;20029;-60
2021/04/22 04:23:59;;;;;;;20.67;4.38;;;5.00;95.00;;;;;;5034793;28;20045;-61
2021/04/22 04:26:24;;;;;;;25.35;5.05;;;5.00;95.00;;;;;;5032841;28;20033;-61
2021/04/22 04:28:50;;;;;;;27.45;4.63;;;5.00;95.10;;;;;;5032571;28;20449;-61
2021/04/22 04:31:16;;;;;;;20.75;4.30;;;5.00;95.20;;;;;;5031926;28;20021;-61
2021/04/22 04:33:42;;;;;;;27.15;5.38;;;5.00;95.20;;;;;;5034240;28;20025;-60
2021/04/22 04:36:08;;;;;;;25.27;5.00;;;5.00;95.10;;;;;;5031428;28;20067;-60
2021/04/22 04:38:33;;;;;;;19.75;4.10;;;5.00;95.20;;;;;;5034850;28;20100;-62
2021/04/22 04:40:59;;;;;;;24.48;5.15;;;5.00;95.30;;;;;;5033197;28;20029;-60
2021/04/22 04:43:25;;;;;;;23.23;4.57;;;5.00;95.20;;;;;;5034619;28;20032;-60
2021/04/22 04:45:50;;;;;;;35.95;6.30;;;5.00;95.30;;;;;;5033633;28;20092;-60
2021/04/22 04:48:16;;;;;;;22.50;5.03;;;4.90;95.50;;;;;;5035651;28;20367;-60
2021/04/22 04:50:42;;;;;;;36.67;5.78;;;4.90;95.60;;;;;;5034817;28;20057;-60
2021/04/22 04:53:07;;;;;;;21.00;4.90;;;5.00;95.50;;;;;;5034796;28;20036;-60
2021/04/22 04:55:33;;;;;;;26.70;5.57;;;5.00;95.50;;;;;;5034699;28;20033;-60
2021/04/22 04:57:59;;;;;;;35.58;6.47;;;5.00;95.50;;;;;;5034282;28;20549;-60
2021/04/22 05:00:26;;;;;;;30.52;5.38;;;5.00;95.40;;;;;;5032914;28;20021;-60
2021/04/22 05:02:52;;;;;;;32.65;4.97;;;4.90;95.50;;;;;;5034638;28;20049;-60
2021/04/22 05:05:18;;;;;;;22.08;5.03;;;4.90;95.70;;;;;;5031613;28;20049;-60
2021/04/22 05:07:44;;;;;;;31.35;5.80;;;4.90;95.60;;;;;;5034703;28;20025;-60
2021/04/22 05:10:11;;;;;;;29.55;5.75;;;4.90;95.70;;;;;;5032487;28;20084;-61
2021/04/22 05:12:37;;;;;;;35.58;5.20;;;4.90;95.80;;;;;;5033836;28;20125;-60
2021/04/22 05:15:05;;;;;;;28.02;6.15;;;4.90;95.90;;;;;;5032945;28;20101;-61
2021/04/22 05:17:30;;;;;;;28.33;5.82;;;4.90;96.10;;;;;;5034341;28;20481;-60
2021/04/22 05:19:56;;;;;;;31.63;5.97;;;4.90;96.10;;;;;;5033702;28;20077;-60
2021/04/22 05:22:21;;;;;;;32.58;6.57;;;4.90;96.10;;;;;;5035735;28;20040;-61
2021/04/22 05:24:47;;;;;;;27.83;6.25;;;5.00;96.00;;;;;;5034528;28;20048;-61
2021/04/22 05:27:12;;;;;;;32.67;6.43;;;5.00;96.00;;;;;;5033305;28;20458;-60
2021/04/22 05:29:38;;;;;;;30.10;6.93;;;5.10;96.00;;;;;;5034416;28;20053;-60
2021/04/22 05:32:04;;;;;;;35.15;6.57;;;5.10;96.00;;;;;;5033891;28;20356;-61
2021/04/22 05:34:31;;;;;;;31.33;6.00;;;5.10;96.00;;;;;;5032220;28;20159;-60
2021/04/22 05:36:57;;;;;;;36.47;6.40;;;5.10;96.00;;;;;;5033803;28;20029;-60
2021/04/22 05:39:23;;;;;;;25.92;5.82;;;5.20;96.00;;;;;;5030812;28;20053;-60
2021/04/22 05:41:51;;;;;;;32.78;6.20;;;5.10;96.10;;;;;;5033021;28;20053;-60
2021/04/22 05:44:17;;;;;;;26.25;6.05;;;5.10;96.20;;;;;;5031527;28;20238;-60
2021/04/22 05:46:44;;;;;;;31.90;7.25;;;5.20;96.20;;;;;;5027799;28;20022;-61
2021/04/22 05:49:10;;;;;;;27.80;5.90;;;5.30;96.20;;;;;;5030331;28;20028;-61
2021/04/22 05:51:37;;;;;;;26.77;6.38;;;5.30;96.10;;;;;;5033488;28;20029;-60
2021/04/22 05:54:04;;;;;;;24.67;5.93;;;5.40;96.20;;;;;;5022048;28;20071;-61
2021/04/22 05:56:30;;;;;;;23.52;6.22;;;5.40;96.10;;;;;;5032210;28;20406;-60
2021/04/22 05:58:55;;;;;;;38.47;6.95;;;5.50;96.00;;;;;;5014980;28;20144;-61
2021/04/22 06:01:21;;;;;;;35.53;6.40;;;5.60;95.90;;;;;;5030448;28;20068;-61
2021/04/22 06:03:47;;;;;;;28.50;7.32;;;5.70;95.70;;;;;;5021133;28;20028;-61
2021/04/22 06:06:12;;;;;;;27.65;7.97;;;5.80;95.70;;;;;;5017252;28;20029;-61
2021/04/22 06:08:38;;;;;;;34.20;8.23;;;5.90;95.40;;;;;;5027643;28;20022;-61
2021/04/22 06:11:03;;;;;;;32.42;6.90;;;5.90;95.30;;;;;;5030410;28;20108;-61
2021/04/22 06:13:29;;;;;;;25.48;6.03;;;6.00;95.10;;;;;;5024631;28;20715;-61
2021/04/22 06:15:54;;;;;;;31.98;6.95;;;6.10;95.10;;;;;;5018615;28;20544;-61
2021/04/22 06:18:20;;;;;;;31.65;5.28;;;6.30;94.60;;;;;;5015085;28;20487;-62
2021/04/22 06:20:46;;;;;;;30.85;5.88;;;6.50;94.60;;;;;;5022939;28;20033;-61
2021/04/22 06:23:11;;;;;;;28.38;6.82;;;6.60;93.90;;;;;;5012762;28;20100;-62
2021/04/22 06:25:37;;;;;;;29.75;6.32;;;6.70;93.80;;;;;;5013315;28;20025;-61
2021/04/22 06:28:03;;;;;;;23.13;5.65;;;6.80;93.70;;;;;;5020443;28;20540;-61
2021/04/22 06:30:28;;;;;;;31.65;6.30;;;6.90;93.70;;;;;;5019941;28;20045;-60
2021/04/22 06:32:55;;;;;;;28.85;6.38;;;6.90;93.10;;;;;;5016142;28;20453;-62
2021/04/22 06:35:22;;;;;;;27.48;5.75;;;7.00;93.00;;;;;;5012328;28;20025;-62
2021/04/22 06:37:48;;;;;;;30.00;6.43;;;7.10;92.70;;;;;;5012635;28;20092;-62
2021/04/22 06:40:17;;;;;;;27.33;5.22;;;7.10;92.50;;;;;;5015723;28;20605;-62
2021/04/22 06:42:43;;;;;;;31.67;5.75;;;7.10;92.40;;;;;;5003512;28;20053;-61
2021/04/22 06:45:11;;;;;;;21.70;5.50;;;7.20;92.30;;;;;;5011697;28;20034;-62
2021/04/22 06:47:37;;;;;;;26.27;5.55;;;7.30;92.10;;;;;;5003870;28;20037;-61
2021/04/22 06:50:05;;;;;;;27.77;6.05;;;7.50;91.80;;;;;;5009955;28;20030;-62
2021/04/22 06:52:31;;;;;;;28.10;6.38;;;7.60;91.50;;;;;;5006721;28;20315;-62
2021/04/22 06:54:58;;;;;;;27.30;6.03;;;7.70;91.50;;;;;;5006390;28;20427;-61
2021/04/22 06:57:23;;;;;;;21.52;5.75;;;7.90;91.10;;;;;;5012167;28;20529;-61
2021/04/22 06:59:49;;;;;;;27.30;6.20;;;8.00;91.10;;;;;;5019653;28;20045;-61
2021/04/22 07:02:14;;;;;;;28.40;6.22;;;7.90;90.90;;;;;;5008072;28;20033;-61
2021/04/22 07:04:40;;;;;;;22.02;5.80;;;8.00;90.80;;;;;;5006998;28;20036;-62
2021/04/22 07:07:08;;;;;;;24.50;5.70;;;8.00;90.30;;;;;;4999789;28;20038;-62
2021/04/22 07:09:35;;;;;;;21.38;5.97;;;8.00;90.00;;;;;;5008436;28;20033;-62
2021/04/22 07:12:01;;;;;;;30.23;6.70;;;8.20;90.10;;;;;;5013503;28;20017;-60
2021/04/22 07:14:26;;;;;;;19.35;5.45;;;8.40;90.10;;;;;;5012273;28;20080;-60
2021/04/22 07:16:52;;;;;;;19.67;5.43;;;8.90;88.70;;;;;;5011015;28;20033;-61
2021/04/22 07:19:18;;;;;;;30.77;6.90;;;9.60;86.80;;;;;;5014154;28;20065;-61
2021/04/22 07:21:43;;;;;;;22.80;5.55;;;10.10;84.70;;;;;;5017344;28;20034;-62
2021/04/22 07:24:09;;;;;;;14.63;4.57;;;11.00;81.90;;;;;;5015381;28;20043;-64
2021/04/22 07:26:35;;;;;;;20.33;5.15;;;11.70;78.70;;;;;;5014485;28;20056;-63
2021/04/22 07:29:01;;;;;;;18.40;4.55;;;11.90;76.10;;;;;;5012256;28;20940;-61
2021/04/22 07:31:27;;;;;;;24.40;4.68;;;12.20;74.50;;;;;;5009206;28;20018;-62
2021/04/22 07:33:53;;;;;;;21.13;4.78;;;12.40;73.40;;;;;;5019379;28;20044;-63
2021/04/22 07:36:21;;;;;;;17.55;4.63;;;12.80;72.20;;;;;;5017748;28;20034;-61
2021/04/22 07:38:47;;;;;;;22.80;5.00;;;12.50;70.40;;;;;;5010692;28;20583;-61
2021/04/22 07:41:13;;;;;;;14.18;4.95;;;12.60;72.10;;;;;;5014248;28;20087;-62
2021/04/22 07:43:38;;;;;;;23.00;4.82;;;12.80;70.20;;;;;;4999065;28;20034;-63
2021/04/22 07:46:04;;;;;;;18.98;5.07;;;13.00;69.90;;;;;;5008940;28;20041;-63
2021/04/22 07:48:30;;;;;;;18.92;5.00;;;12.80;69.50;;;;;;5017531;28;20030;-62
2021/04/22 07:50:56;;;;;;;18.17;4.57;;;12.80;69.30;;;;;;5012942;28;20103;-61
2021/04/22 07:53:21;;;;;;;19.63;5.07;;;12.40;70.10;;;;;;5015523;28;20529;-61
2021/04/22 07:55:47;;;;;;;18.10;4.72;;;12.40;70.50;;;;;;5007303;28;20041;-61
2021/04/22 07:58:15;;;;;;;18.80;4.68;;;12.90;71.00;;;;;;5013872;28;20164;-62
2021/04/22 08:00:42;;;;;;;18.35;4.93;;;13.80;68.30;;;;;;5017144;28;20469;-62
2021/04/22 08:03:08;;;;;;;13.30;4.88;;;13.80;66.60;;;;;;5017669;28;20535;-61
2021/04/22 08:05:37;;;;;;;16.83;4.90;;;14.10;65.20;;;;;;5017888;28;20025;-62
2021/04/22 08:08:08;;;;;;;14.02;4.63;;;15.10;63.80;;;;;;5019137;28;20021;-61
2021/04/22 08:10:35;;;;;;;14.90;4.55;;;14.80;62.30;;;;;;5013575;28;20044;-61
2021/04/22 08:13:03;;;;;;;18.60;5.50;;;14.30;63.60;;;;;;5018082;28;20038;-61
2021/04/22 08:15:31;;;;;;;28.45;5.32;;;14.10;64.50;;;;;;5011177;28;20030;-61
2021/04/22 08:17:57;;;;;;;22.42;5.10;;;14.00;64.90;;;;;;5014421;28;20037;-60
2021/04/22 08:20:25;;;;;;;17.08;4.68;;;13.80;65.10;;;;;;5015764;28;20568;-61
2021/04/22 08:22:55;;;;;;;15.40;4.10;;;13.80;64.40;;;;;;5012782;28;20095;-62
2021/04/22 08:25:26;;;;;;;21.10;4.47;;;13.80;65.00;;;;;;5009405;28;20037;-61
2021/04/22 08:27:53;;;;;;;18.48;4.50;;;13.50;65.40;;;;;;5009692;28;20053;-61
2021/04/22 08:30:25;;;;;;;18.13;4.32;;;13.30;65.50;;;;;;5017916;28;20109;-61
2021/04/22 08:32:51;;;;;;;17.27;4.95;;;13.30;65.50;;;;;;5021720;28;20026;-61
2021/04/22 08:35:17;;;;;;;15.45;4.90;;;13.90;64.90;;;;;;5010213;28;20087;-61
2021/04/22 08:37:43;;;;;;;15.00;4.57;;;14.50;64.00;;;;;;5003354;28;20030;-61
2021/04/22 08:40:11;;;;;;;15.98;4.32;;;15.00;60.80;;;;;;5007397;28;20033;-62
2021/04/22 08:42:38;;;;;;;18.80;4.40;;;15.60;59.50;;;;;;5002275;28;20029;-63
2021/04/22 08:45:06;;;;;;;16.95;4.00;;;15.60;59.10;;;;;;5012575;28;20045;-63
2021/04/22 08:47:32;;;;;;;17.77;4.43;;;16.00;58.70;;;;;;5015008;28;20152;-62
2021/04/22 08:49:58;;;;;;;16.88;4.70;;;16.50;57.90;;;;;;5009791;28;20260;-62
2021/04/22 08:52:24;;;;;;;16.55;4.45;;;17.00;55.70;;;;;;5009078;28;20359;-63
2021/04/22 08:54:51;;;;;;;15.05;4.18;;;16.60;56.90;;;;;;5013311;28;20026;-62
2021/04/22 08:57:18;;;;;;;15.10;4.25;;;16.60;55.90;;;;;;5012380;28;20140;-62
2021/04/22 08:59:44;;;;;;;16.63;4.93;;;16.70;56.20;;;;;;5010072;28;20104;-62
2021/04/22 09:02:09;;;;;;;15.43;4.68;;;16.30;56.50;;;;;;5009997;28;20025;-62
2021/04/22 09:04:35;;;;;;;12.88;3.45;;;16.60;56.90;;;;;;5016636;28;20034;-63
2021/04/22 09:07:01;;;;;;;16.30;4.47;;;17.20;55.20;;;;;;5007473;28;20703;-63
2021/04/22 09:09:27;;;;;;;16.15;4.60;;;17.90;53.80;;;;;;5020248;28;20024;-62
2021/04/22 09:11:53;;;;;;;19.75;5.05;;;18.20;52.40;;;;;;5010618;28;20033;-63
2021/04/22 09:14:20;;;;;;;18.58;4.60;;;17.40;53.60;;;;;;5018563;28;20026;-63
2021/04/22 09:16:49;;;;;;;19.50;4.82;;;17.20;55.10;;;;;;5013913;28;20025;-63
2021/04/22 09:19:22;;;;;;;13.88;3.55;;;17.20;54.10;;;;;;5008377;28;20034;-63
2021/04/22 09:21:56;;;;;;;16.80;4.43;;;16.70;53.70;;;;;;5017637;28;20460;-63
2021/04/22 09:24:25;;;;;;;14.45;4.57;;;16.80;53.80;;;;;;5015623;28;20570;-63
2021/04/22 09:26:58;;;;;;;15.18;4.80;;;16.40;54.70;;;;;;5022482;28;20029;-62
2021/04/22 09:29:29;;;;;;;21.05;4.65;;;16.40;56.00;;;;;;5014869;28;20056;-62
2021/04/22 09:32:16;;;;;;;15.65;3.95;;;16.60;54.00;;;;;;5013661;28;20491;-62
2021/04/22 09:35:09;;;;;;;14.95;5.03;;;16.10;55.30;;;;;;5017046;28;20064;-62
2021/04/22 09:37:46;;;;;;;24.73;4.97;;;15.90;55.30;;;;;;5008622;28;20494;-63
2021/04/22 09:40:29;;;;;;;14.98;4.63;;;15.80;55.00;;;;;;5014286;28;20029;-62
2021/04/22 09:42:58;;;;;;;14.85;4.18;;;16.10;55.30;;;;;;5017189;28;20038;-62
2021/04/22 09:45:26;;;;;;;18.05;4.35;;;16.80;54.10;;;;;;5016966;28;20022;-62
2021/04/22 09:47:52;;;;;;;18.13;4.35;;;17.40;53.20;;;;;;5013414;28;20486;-62
2021/04/22 09:50:22;;;;;;;19.70;5.00;;;17.70;52.00;;;;;;5011779;28;20095;-62
2021/04/22 09:52:53;;;;;;;17.33;4.47;;;18.00;50.70;;;;;;5013557;28;20377;-62
2021/04/22 09:55:21;;;;;;;14.85;3.95;;;17.80;51.20;;;;;;5018205;28;20134;-62
2021/04/22 09:57:47;;;;;;;20.17;4.43;;;18.10;51.30;;;;;;5018958;28;20048;-63
2021/04/22 10:00:26;;;;;;;16.33;3.92;;;17.70;51.20;;;;;;5015876;28;20098;-63
2021/04/22 10:02:56;;;;;;;16.90;4.22;;;17.80;52.20;;;;;;5019265;28;20037;-63
2021/04/22 10:05:26;;;;;;;18.88;4.78;;;17.40;51.40;;;;;;5017529;28;20071;-62
2021/04/22 10:08:04;;;;;;;19.73;4.47;;;17.80;50.40;;;;;;5017667;28;20628;-62
2021/04/22 10:10:29;;;;;;;19.15;4.70;;;17.30;50.70;;;;;;5010052;28;20030;-62
2021/04/22 10:13:03;;;;;;;17.50;4.80;;;17.60;52.50;;;;;;5011250;28;20033;-63
2021/04/22 10:15:31;;;;;;;16.60;4.88;;;17.30;51.00;;;;;;5015003;28;21476;-63
2021/04/22 10:18:00;;;;;;;18.40;3.95;;;17.50;52.00;;;;;;5010443;28;20033;-63
2021/04/22 10:20:28;;;;;;;15.02;3.70;;;18.00;51.10;;;;;;5009465;28;20524;-62
2021/04/22 10:22:54;;;;;;;27.80;5.80;;;17.60;50.60;;;;;;5009152;28;20049;-62
2021/04/22 10:25:25;;;;;;;24.45;4.35;;;17.80;50.60;;;;;;5006735;28;20030;-62
2021/04/22 10:27:52;;;;;;;14.25;4.10;;;17.90;50.70;;;;;;5013482;28;20022;-63
2021/04/22 10:30:24;;;;;;;16.70;4.32;;;17.50;50.90;;;;;;5018742;28;20017;-63
2021/04/22 10:32:52;;;;;;;19.17;4.53;;;18.10;50.70;;;;;;5018108;28;20029;-62
2021/04/22 10:35:20;;;;;;;26.25;4.85;;;18.70;48.20;;;;;;5020380;28;20037;-63
2021/04/22 10:37:50;;;;;;;23.08;5.03;;;18.30;49.40;;;;;;5015190;28;20060;-63
2021/04/22 10:40:17;;;;;;;17.42;5.38;;;18.20;49.40;;;;;;5008078;28;20430;-61
2021/04/22 10:42:44;;;;;;;18.25;4.28;;;18.30;48.60;;;;;;5009019;28;20034;-62
2021/04/22 10:45:13;;;;;;;22.75;4.75;;;18.10;49.60;;;;;;5003931;28;20581;-63
2021/04/22 10:47:39;;;;;;;13.48;4.75;;;17.90;49.30;;;;;;5009467;28;20026;-62
2021/04/22 10:50:13;;;;;;;19.15;4.72;;;17.80;50.40;;;;;;5008366;28;20670;-63
2021/04/22 10:52:48;;;;;;;24.00;5.30;;;18.30;50.30;;;;;;5003489;28;20033;-63
2021/04/22 10:55:20;;;;;;;26.67;5.22;;;18.40;48.20;;;;;;5009775;28;20030;-62
2021/04/22 10:57:46;;;;;;;24.10;5.20;;;18.50;49.40;;;;;;5009863;28;20506;-63
2021/04/22 11:00:15;;;;;;;27.40;4.85;;;19.00;50.10;;;;;;5010369;28;20040;-63
2021/04/22 11:02:50;;;;;;;23.27;4.57;;;19.80;48.60;;;;;;5014300;28;20041;-63
2021/04/22 11:05:23;;;;;;;19.80;5.35;;;19.70;46.60;;;;;;5008494;28;20347;-63
2021/04/22 11:08:04;;;;;;;19.65;4.70;;;20.00;46.90;;;;;;5013553;28;20032;-63
2021/04/22 11:10:46;;;;;;;12.52;4.60;;;20.30;45.20;;;;;;5010101;28;20029;-64
2021/04/22 11:13:21;;;;;;;15.05;5.03;;;20.10;43.90;;;;;;5010358;28;20022;-63
2021/04/22 11:15:56;;;;;;;11.75;4.15;;;19.80;44.80;;;;;;5005281;28;20036;-63
2021/04/22 11:18:46;;;;;;;15.02;4.57;;;20.10;44.80;;;;;;5028424;28;20037;-63
2021/04/22 11:21:24;;;;;;;17.58;4.43;;;19.40;44.90;;;;;;5012829;28;20084;-63
2021/04/22 11:23:50;;;;;;;16.35;4.55;;;19.70;45.00;;;;;;5012540;28;20030;-63
2021/04/22 11:26:35;;;;;;;27.38;4.78;;;19.20;45.30;;;;;;5014209;28;20033;-63
2021/04/22 11:29:18;;;;;;;14.07;3.90;;;19.70;44.80;;;;;;5012926;28;20055;-62
2021/04/22 11:31:50;;;;;;;13.35;4.55;;;20.20;43.00;;;;;;5010600;28;20033;-62
2021/04/22 11:34:16;;;;;;;14.38;3.92;;;19.40;44.50;;;;;;5012545;28;20034;-62
2021/04/22 11:36:49;;;;;;;19.45;4.90;;;20.00;45.50;;;;;;5019765;28;20042;-62
2021/04/22 11:39:16;;;;;;;21.10;4.95;;;20.40;43.30;;;;;;5012700;28;20034;-62
2021/04/22 11:41:53;;;;;;;14.18;4.50;;;20.50;42.30;;;;;;5015122;28;20054;-62
2021/04/22 11:44:30;;;;;;;15.77;5.00;;;19.60;44.50;;;;;;5016686;28;20151;-62
2021/04/22 11:46:55;;;;;;;15.15;4.40;;;19.50;44.90;;;;;;5011708;28;20383;-62
2021/04/22 11:49:30;;;;;;;14.45;4.40;;;18.60;45.30;;;;;;5008073;28;20068;-62
2021/04/22 11:51:58;;;;;;;13.98;4.43;;;18.80;45.30;;;;;;5004053;28;20069;-63
2021/04/22 11:54:33;;;;;;;15.63;5.25;;;19.70;43.90;;;;;;5011552;28;20075;-63
2021/04/22 11:57:03;;;;;;;13.32;4.07;;;20.40;43.00;;;;;;5010287;28;20042;-61
2021/04/22 11:59:28;;;;;;;16.20;4.25;;;20.70;44.20;;;;;;5011619;28;20050;-62
2021/04/22 12:01:58;;;;;;;14.93;4.25;;;20.70;41.60;;;;;;5014097;28;20111;-62
2021/04/22 12:04:53;;;;;;;17.55;4.40;;;21.50;42.10;;;;;;5015538;28;20323;-63
2021/04/22 12:07:22;;;;;;;23.65;4.25;;;21.90;40.70;;;;;;5005815;28;20403;-63
2021/04/22 12:09:54;;;;;;;20.13;4.43;;;22.10;39.70;;;;;;5014726;28;20062;-63
2021/04/22 12:12:26;;;;;;;23.45;4.25;;;22.60;38.20;;;;;;5016766;28;20025;-63
2021/04/22 12:14:57;;;;;;;11.05;3.88;;;22.90;37.50;;;;;;5016401;28;20479;-62
2021/04/22 12:17:31;;;;;;;12.93;3.60;;;21.90;37.80;;;;;;5017858;28;20060;-62
2021/04/22 12:19:59;;;;;;;13.07;3.45;;;21.20;38.80;;;;;;5015037;28;20059;-62
2021/04/22 12:22:32;;;;;;;12.05;3.42;;;20.30;38.10;;;;;;5015574;28;20037;-62
2021/04/22 12:24:59;;;;;;;23.77;4.30;;;19.40;40.50;;;;;;5015845;28;20068;-61
2021/04/22 12:27:36;;;;;;;14.98;3.58;;;20.00;40.50;;;;;;5016610;28;20466;-61
2021/04/22 12:30:25;;;;;;;15.32;3.65;;;20.30;39.30;;;;;;5020585;28;20033;-61
2021/04/22 12:32:59;;;;;;;13.88;3.78;;;20.70;40.30;;;;;;5016549;28;20382;-62
2021/04/22 12:35:29;;;;;;;13.95;3.63;;;20.40;39.80;;;;;;5012599;28;20026;-62
2021/04/22 12:37:56;;;;;;;9.75;3.40;;;20.90;40.00;;;;;;5011906;28;20040;-62
2021/04/22 12:40:23;;;;;;;15.20;3.35;;;20.60;38.40;;;;;;5011435;28;20033;-62
2021/04/22 12:42:49;;;;;;;11.63;3.63;;;20.00;39.40;;;;;;5011788;28;20034;-61
2021/04/22 12:45:21;;;;;;;14.60;3.42;;;20.40;39.40;;;;;;5019662;28;20052;-61
2021/04/22 12:47:56;;;;;;;14.02;3.22;;;20.60;38.90;;;;;;5015344;28;20030;-62